createdAt,value
2018-05-03T00:00:29.523Z,61.62
2018-05-03T00:02:57.350Z,61.60
2018-05-03T00:05:24.956Z,61.72
2018-05-03T00:07:52.578Z,61.91
2018-05-03T00:10:20.202Z,61.79
2018-05-03T00:12:47.790Z,61.36
2018-05-03T00:15:15.527Z,61.52
2018-05-03T00:17:43.122Z,61.39
2018-05-03T00:20:10.715Z,61.61
2018-05-03T00:22:38.328Z,61.20
2018-05-03T00:25:05.914Z,61.52
2018-05-03T00:27:33.558Z,61.49
2018-05-03T00:30:01.162Z,61.94
2018-05-03T00:32:28.768Z,61.78
2018-05-03T00:34:56.378Z,61.17
2018-05-03T00:37:23.970Z,61.03
2018-05-03T00:39:51.833Z,61.02
2018-05-03T00:42:19.422Z,61.99
2018-05-03T00:44:47.013Z,61.86
2018-05-03T00:47:14.639Z,61.52
2018-05-03T00:49:42.265Z,62.28
2018-05-03T00:52:10.056Z,62.61
2018-05-03T00:54:48.665Z,62.91
2018-05-03T00:57:16.372Z,63.30
2018-05-03T00:59:43.980Z,63.30
2018-05-03T01:02:11.723Z,63.30
2018-05-03T01:04:39.356Z,63.25
2018-05-03T01:07:06.970Z,63.70
2018-05-03T01:09:35.391Z,63.56
2018-05-03T01:12:02.988Z,64.26
2018-05-03T01:14:30.583Z,64.25
2018-05-03T01:16:58.201Z,64.29
2018-05-03T01:19:25.802Z,64.15
2018-05-03T01:21:53.462Z,63.39
2018-05-03T01:24:21.047Z,64.18
2018-05-03T01:26:48.670Z,64.64
2018-05-03T01:29:16.298Z,64.74
2018-05-03T01:31:43.890Z,64.38
2018-05-03T01:34:11.883Z,64.58
2018-05-03T01:36:39.478Z,64.51
2018-05-03T01:39:07.091Z,64.26
2018-05-03T01:41:34.778Z,64.35
2018-05-03T01:44:02.389Z,64.53
2018-05-03T01:46:30.003Z,64.95
2018-05-03T01:48:57.628Z,64.71
2018-05-03T01:51:25.228Z,64.81
2018-05-03T01:53:52.871Z,64.31
2018-05-03T01:56:20.481Z,64.23
2018-05-03T01:58:48.073Z,64.08
2018-05-03T02:01:15.865Z,63.31
2018-05-03T02:03:43.475Z,63.27
2018-05-03T02:06:11.070Z,62.87
2018-05-03T02:08:38.682Z,63.05
2018-05-03T02:11:06.293Z,63.02
2018-05-03T02:13:34.174Z,63.30
2018-05-03T02:16:01.786Z,62.67
2018-05-03T03:44:15.530Z,64.81
2018-05-03T03:46:43.156Z,65.57
2018-05-03T03:49:10.903Z,65.96
2018-05-03T03:51:38.500Z,65.94
2018-05-03T03:54:06.091Z,65.94
2018-05-03T03:56:33.793Z,65.45
2018-05-03T03:59:01.494Z,65.48
2018-05-03T04:01:29.310Z,65.45
2018-05-03T04:03:56.906Z,65.59
2018-05-03T04:06:24.506Z,65.51
2018-05-03T04:08:52.134Z,66.06
2018-05-03T04:11:19.726Z,65.63
2018-05-03T04:13:47.529Z,65.82
2018-05-03T04:16:15.133Z,65.36
2018-05-03T04:18:54.926Z,65.53
2018-05-03T04:21:34.345Z,65.47
2018-05-03T04:24:13.749Z,65.81
2018-05-03T04:26:41.370Z,65.75
2018-05-03T04:29:09.143Z,65.91
2018-05-03T04:31:36.740Z,65.58
2018-05-03T04:34:04.358Z,66.39
2018-05-03T04:36:31.998Z,66.19
2018-05-03T04:38:59.627Z,66.06
2018-05-03T04:41:27.247Z,66.14
2018-05-03T04:43:54.871Z,66.15
2018-05-03T04:46:22.472Z,66.43
2018-05-03T04:48:50.095Z,66.02
2018-05-03T04:51:17.684Z,65.71
2018-05-03T04:53:45.285Z,66.04
2018-05-03T04:56:13.111Z,66.52
2018-05-03T04:58:40.712Z,66.50
2018-05-03T05:01:08.340Z,66.71
2018-05-03T05:03:36.018Z,66.60
2018-05-03T05:06:03.629Z,66.95
2018-05-03T05:08:31.227Z,66.95
2018-05-03T05:10:59.200Z,66.79
2018-05-03T05:13:26.810Z,66.88
2018-05-03T05:15:54.470Z,66.46
2018-05-03T05:18:22.070Z,66.52
2018-05-03T05:20:49.666Z,66.34
2018-05-03T05:23:17.282Z,66.42
2018-05-03T05:25:44.878Z,65.01
2018-05-03T05:28:12.771Z,66.04
2018-05-03T05:30:40.410Z,65.69
2018-05-03T05:33:08.025Z,65.85
2018-05-03T05:35:35.809Z,65.74
2018-05-03T05:38:03.419Z,65.39
2018-05-03T05:40:31.263Z,65.57
2018-05-03T05:42:58.891Z,65.54
2018-05-03T05:45:26.500Z,65.50
2018-05-03T05:47:54.295Z,65.27
2018-05-03T05:50:21.904Z,64.59
2018-05-03T05:52:49.561Z,64.53
2018-05-03T05:55:17.245Z,64.16
2018-05-03T05:57:44.855Z,64.38
2018-05-03T06:00:12.511Z,64.40
2018-05-03T06:02:40.116Z,64.37
2018-05-03T06:05:07.866Z,64.08
2018-05-03T06:07:35.460Z,64.51
2018-05-03T06:10:03.059Z,63.87
2018-05-03T06:12:30.682Z,63.95
2018-05-03T06:14:58.278Z,64.08
2018-05-03T06:17:25.987Z,63.83
2018-05-03T06:19:53.586Z,63.69
2018-05-03T06:22:21.183Z,63.48
2018-05-03T06:24:48.804Z,63.14
2018-05-03T06:27:16.411Z,62.83
2018-05-03T06:29:44.213Z,62.61
2018-05-03T06:32:11.810Z,62.60
2018-05-03T06:34:39.403Z,61.80
2018-05-03T06:37:07.026Z,62.31
2018-05-03T06:39:34.632Z,61.47
2018-05-03T06:42:02.516Z,61.85
2018-05-03T06:44:30.119Z,61.71
2018-05-03T06:46:57.712Z,61.25
2018-05-03T06:49:25.632Z,60.69
2018-05-03T06:51:53.234Z,60.12
2018-05-03T06:54:21.013Z,60.08
2018-05-03T06:56:48.616Z,60.21
2018-05-03T06:59:16.202Z,59.91
2018-05-03T07:01:43.821Z,59.49
2018-05-03T07:04:11.467Z,58.63
2018-05-03T07:06:39.578Z,59.41
2018-05-03T07:09:07.163Z,59.44
2018-05-03T07:11:34.771Z,59.05
2018-05-03T07:14:02.385Z,59.78
2018-05-03T07:16:29.982Z,59.43
2018-05-03T07:18:57.613Z,58.68
2018-05-03T07:21:25.217Z,59.55
2018-05-03T07:23:52.893Z,58.23
2018-05-03T07:26:20.478Z,57.99
2018-05-03T07:28:48.202Z,58.40
2018-05-03T07:31:16.055Z,58.36
2018-05-03T07:33:43.650Z,58.42
2018-05-03T07:36:11.289Z,58.31
2018-05-03T07:38:38.915Z,57.52
2018-05-03T07:41:06.521Z,56.41
2018-05-03T07:43:34.278Z,56.12
2018-05-03T07:46:01.915Z,56.78
2018-05-03T07:48:29.597Z,55.74
2018-05-03T07:50:58.106Z,55.27
2018-05-03T07:53:31.162Z,55.90
2018-05-03T07:56:00.419Z,55.09
2018-05-03T07:58:30.063Z,54.46
2018-05-03T08:00:58.261Z,53.85
2018-05-03T08:03:25.921Z,53.91
2018-05-03T08:05:53.567Z,53.72
2018-05-03T08:08:21.350Z,53.98
2018-05-03T08:10:49.238Z,53.67
2018-05-03T08:13:16.826Z,53.69
2018-05-03T08:15:44.648Z,53.74
2018-05-03T08:18:12.240Z,53.55
2018-05-03T08:20:40.177Z,52.94
2018-05-03T08:23:07.764Z,52.79
2018-05-03T08:25:35.369Z,52.96
2018-05-03T08:28:02.991Z,52.92
2018-05-03T08:30:30.585Z,52.55
2018-05-03T08:32:58.580Z,52.05
2018-05-03T08:35:26.174Z,52.16
2018-05-03T08:37:53.763Z,52.16
2018-05-03T08:40:21.382Z,53.30
2018-05-03T08:42:48.966Z,52.45
2018-05-03T08:45:16.890Z,52.45
2018-05-03T08:47:44.478Z,52.22
2018-05-03T08:50:12.073Z,51.98
2018-05-03T08:52:39.689Z,53.70
2018-05-03T08:55:07.295Z,52.96
2018-05-03T08:57:34.924Z,51.74
2018-05-03T09:00:02.509Z,52.75
2018-05-03T09:02:30.103Z,50.89
2018-05-03T09:04:57.837Z,51.78
2018-05-03T09:07:25.426Z,50.73
2018-05-03T09:09:53.138Z,50.72
2018-05-03T09:12:20.723Z,49.60
2018-05-03T09:14:48.314Z,48.47
2018-05-03T09:17:15.925Z,49.43
2018-05-03T09:19:43.510Z,48.18
2018-05-03T09:22:11.322Z,48.65
2018-05-03T09:24:39.138Z,50.33
2018-05-03T09:27:06.722Z,49.68
2018-05-03T09:29:34.339Z,48.92
2018-05-03T09:32:01.921Z,47.86
2018-05-03T09:34:29.646Z,47.65
2018-05-03T09:36:57.239Z,47.93
2018-05-03T09:39:24.827Z,49.28
2018-05-03T09:41:52.636Z,49.10
2018-05-03T09:44:20.223Z,48.29
2018-05-03T09:46:47.844Z,49.54
2018-05-03T09:49:15.429Z,49.78
2018-05-03T09:51:43.019Z,48.88
2018-05-03T09:54:10.741Z,48.35
2018-05-03T09:56:38.540Z,49.75
2018-05-03T09:59:06.362Z,48.99
2018-05-03T10:01:33.954Z,48.04
2018-05-03T10:04:01.550Z,48.39
2018-05-03T10:06:29.155Z,49.39
2018-05-03T10:08:58.414Z,48.04
2018-05-03T10:11:26.514Z,48.88
2018-05-03T10:13:54.112Z,48.54
2018-05-03T10:16:21.705Z,48.35
2018-05-03T10:18:49.333Z,48.56
2018-05-03T10:21:16.914Z,48.36
2018-05-03T10:23:44.541Z,49.26
2018-05-03T10:26:12.545Z,47.96
2018-05-03T10:28:40.133Z,48.90
2018-05-03T10:31:07.808Z,48.75
2018-05-03T10:33:35.518Z,49.36
2018-05-03T10:36:03.583Z,47.46
2018-05-03T10:38:32.879Z,47.42
2018-05-03T10:41:00.704Z,47.28
2018-05-03T10:43:29.827Z,47.63
2018-05-03T10:46:11.211Z,47.33
2018-05-03T10:48:52.073Z,48.05
2018-05-03T10:51:32.416Z,47.92
2018-05-03T10:54:11.551Z,47.82
2018-05-03T10:56:53.780Z,47.87
2018-05-03T10:59:23.124Z,47.25
2018-05-03T11:02:07.594Z,48.33
2018-05-03T11:04:46.006Z,47.10
2018-05-03T11:07:16.333Z,46.37
2018-05-03T11:09:58.491Z,48.33
2018-05-03T11:12:39.792Z,47.36
2018-05-03T11:15:18.347Z,49.41
2018-05-03T11:17:55.237Z,45.75
2018-05-03T11:20:38.118Z,46.26
2018-05-03T11:23:13.540Z,45.97
2018-05-03T11:25:49.933Z,46.07
2018-05-03T11:28:25.074Z,47.91
2018-05-03T11:30:53.398Z,45.39
2018-05-03T11:33:21.000Z,46.46
2018-05-03T11:35:48.588Z,45.35
2018-05-03T11:38:16.196Z,45.52
2018-05-03T11:40:43.786Z,46.47
2018-05-03T11:43:11.398Z,46.18
2018-05-03T11:45:38.997Z,46.34
2018-05-03T11:48:06.618Z,45.81
2018-05-03T11:50:34.308Z,45.77
2018-05-03T11:53:01.935Z,46.20
2018-05-03T11:55:29.519Z,45.38
2018-05-03T11:57:57.130Z,47.03
2018-05-03T12:00:24.715Z,45.41
2018-05-03T12:02:52.337Z,43.84
2018-05-03T12:05:19.935Z,44.28
2018-05-03T12:07:47.636Z,44.74
2018-05-03T12:10:15.258Z,41.99
2018-05-03T12:12:42.881Z,42.09
2018-05-03T12:15:10.490Z,43.44
2018-05-03T12:17:38.083Z,42.18
2018-05-03T12:20:05.743Z,42.22
2018-05-03T12:22:33.339Z,41.04
2018-05-03T12:25:00.968Z,40.74
2018-05-03T12:27:28.560Z,42.80
2018-05-03T12:29:56.155Z,40.89
2018-05-03T12:32:23.773Z,41.27
2018-05-03T12:34:51.396Z,40.84
2018-05-03T12:37:19.045Z,42.01
2018-05-03T12:39:46.643Z,39.98
2018-05-03T12:42:14.259Z,41.81
2018-05-03T12:44:41.846Z,41.71
2018-05-03T12:47:09.471Z,39.79
2018-05-03T12:49:37.598Z,40.28
2018-05-03T12:52:05.212Z,42.94
2018-05-03T12:54:32.818Z,40.11
2018-05-03T12:57:00.435Z,38.36
2018-05-03T12:59:28.025Z,37.93
2018-05-03T13:01:55.651Z,38.60
2018-05-03T13:04:23.242Z,36.43
2018-05-03T13:06:50.925Z,35.99
2018-05-03T13:09:18.515Z,35.09
2018-05-03T13:11:46.555Z,35.59
2018-05-03T13:14:14.203Z,35.54
2018-05-03T13:16:41.754Z,37.02
2018-05-03T13:19:09.362Z,37.58
2018-05-03T13:21:37.024Z,38.56
2018-05-03T13:24:04.646Z,37.78
2018-05-03T13:26:32.260Z,37.68
2018-05-03T13:28:59.906Z,37.97
2018-05-03T13:31:27.494Z,38.13
2018-05-03T13:33:55.090Z,37.01
2018-05-03T13:36:22.885Z,37.37
2018-05-03T13:38:50.504Z,39.36
2018-05-03T13:41:18.171Z,38.91
2018-05-03T13:43:45.739Z,39.80
2018-05-03T13:46:13.371Z,41.04
2018-05-03T13:48:40.961Z,40.90
2018-05-03T13:51:08.558Z,40.82
2018-05-03T13:53:36.175Z,41.90
2018-05-03T13:56:03.774Z,42.08
2018-05-03T13:58:31.408Z,43.48
2018-05-03T14:00:59.017Z,43.36
2018-05-03T14:03:26.863Z,43.62
2018-05-03T14:05:54.457Z,42.12
2018-05-03T14:08:22.114Z,43.17
2018-05-03T14:10:49.737Z,42.08
2018-05-03T14:13:17.343Z,42.27
2018-05-03T14:15:44.968Z,44.82
2018-05-03T14:18:12.563Z,42.45
2018-05-03T14:20:40.363Z,42.48
2018-05-03T14:23:07.958Z,42.10
2018-05-03T14:25:35.648Z,42.93
2018-05-03T14:28:04.021Z,42.23
2018-05-03T14:30:31.610Z,42.54
2018-05-03T14:32:59.223Z,42.89
2018-05-03T14:35:26.988Z,43.03
2018-05-03T14:37:54.576Z,43.10
2018-05-03T14:40:22.168Z,43.16
2018-05-03T14:42:49.758Z,43.23
2018-05-03T14:45:18.174Z,43.35
2018-05-03T14:47:45.772Z,42.82
2018-05-03T14:50:13.574Z,42.28
2018-05-03T14:52:41.158Z,43.44
2018-05-03T14:55:09.072Z,43.29
2018-05-03T14:57:36.619Z,44.05
2018-05-03T15:00:04.334Z,43.30
2018-05-03T15:02:31.954Z,43.24
2018-05-03T15:04:59.542Z,43.82
2018-05-03T15:07:29.397Z,44.30
2018-05-03T15:09:56.999Z,44.19
2018-05-03T15:12:24.643Z,44.24
2018-05-03T15:14:52.839Z,43.29
2018-05-03T15:17:20.425Z,44.14
2018-05-03T15:19:48.038Z,43.79
2018-05-03T15:22:15.657Z,43.47
2018-05-03T15:24:43.269Z,43.68
2018-05-03T15:27:10.860Z,43.82
2018-05-03T15:29:38.885Z,44.48
2018-05-03T15:32:06.478Z,44.82
2018-05-03T15:34:34.070Z,44.47
2018-05-03T15:37:01.703Z,44.28
2018-05-03T15:39:29.299Z,44.56
2018-05-03T15:41:56.911Z,43.65
2018-05-03T15:44:24.508Z,44.71
2018-05-03T15:46:52.476Z,44.14
2018-05-03T15:49:20.074Z,44.01
2018-05-03T15:51:47.668Z,45.32
2018-05-03T15:54:15.281Z,45.35
2018-05-03T15:56:42.876Z,45.57
2018-05-03T15:59:10.491Z,45.42
2018-05-03T16:01:38.162Z,45.62
2018-05-03T16:04:05.933Z,45.43
2018-05-03T16:06:33.529Z,45.71
2018-05-03T16:09:01.121Z,45.30
2018-05-03T16:11:28.745Z,45.35
2018-05-03T16:13:56.330Z,45.87
2018-05-03T16:16:23.943Z,46.13
2018-05-03T16:18:51.616Z,47.21
2018-05-03T16:21:19.825Z,47.11
2018-05-03T16:23:47.420Z,46.54
2018-05-03T16:26:15.014Z,47.65
2018-05-03T16:28:42.636Z,47.23
2018-05-03T16:31:10.234Z,47.69
2018-05-03T16:33:37.869Z,47.42
2018-05-03T16:36:05.452Z,47.87
2018-05-03T16:38:33.110Z,48.13
2018-05-03T16:41:00.726Z,48.20
2018-05-03T16:43:28.323Z,48.31
2018-05-03T16:45:55.938Z,48.10
2018-05-03T16:48:23.528Z,47.78
2018-05-03T16:50:51.154Z,47.82
2018-05-03T16:53:18.748Z,47.23
2018-05-03T16:55:46.334Z,47.96
2018-05-03T16:58:13.961Z,48.34
2018-05-03T17:00:41.550Z,48.09
2018-05-03T17:03:09.302Z,48.20
2018-05-03T17:05:36.892Z,48.44
2018-05-03T17:08:04.502Z,48.33
2018-05-03T17:10:32.124Z,48.88
2018-05-03T17:12:59.722Z,49.16
2018-05-03T17:15:27.709Z,48.99
2018-05-03T17:17:55.305Z,48.92
2018-05-03T17:20:23.110Z,50.01
2018-05-03T17:22:50.730Z,49.62
2018-05-03T17:25:18.319Z,49.82
2018-05-03T17:27:45.958Z,49.55
2018-05-03T17:30:13.598Z,49.76
2018-05-03T17:32:41.254Z,49.92
2018-05-03T17:35:08.860Z,50.33
2018-05-03T17:37:36.459Z,50.49
2018-05-03T17:40:04.144Z,50.56
2018-05-03T17:42:31.742Z,50.54
2018-05-03T17:44:59.469Z,50.50
2018-05-03T17:47:27.067Z,50.30
2018-05-03T17:49:55.020Z,50.45
2018-05-03T17:52:22.613Z,50.73
2018-05-03T17:54:51.125Z,50.38
2018-05-03T17:57:18.759Z,50.53
2018-05-03T17:59:46.358Z,50.42
2018-05-03T18:02:13.980Z,50.83
2018-05-03T18:04:41.605Z,50.89
2018-05-03T18:07:09.554Z,51.12
2018-05-03T18:09:37.149Z,51.08
2018-05-03T18:12:04.761Z,51.03
2018-05-03T18:14:32.398Z,51.09
2018-05-03T18:16:59.994Z,51.31
2018-05-03T18:19:27.610Z,51.26
2018-05-03T18:21:55.224Z,51.36
2018-05-03T18:24:22.868Z,51.17
2018-05-03T18:26:50.455Z,51.29
2018-05-03T18:29:18.053Z,51.36
2018-05-03T18:31:45.686Z,51.56
2018-05-03T18:34:13.355Z,51.97
2018-05-03T18:36:41.194Z,51.54
2018-05-03T18:39:08.800Z,52.14
2018-05-03T18:41:36.397Z,51.82
2018-05-03T18:44:04.034Z,51.98
2018-05-03T18:46:31.656Z,51.83
2018-05-03T18:48:59.346Z,51.61
2018-05-03T18:51:27.054Z,52.04
2018-05-03T18:53:54.682Z,51.71
2018-05-03T18:56:22.283Z,51.56
2018-05-03T18:58:49.881Z,51.93
2018-05-03T19:01:17.586Z,51.71
2018-05-03T19:03:45.122Z,51.69
2018-05-03T19:06:12.743Z,51.70
2018-05-03T19:08:40.335Z,51.87
2018-05-03T19:11:08.280Z,52.41
2018-05-03T19:13:35.882Z,52.34
2018-05-03T19:16:03.476Z,52.81
2018-05-03T19:18:31.094Z,52.33
2018-05-03T19:20:58.691Z,52.57
2018-05-03T19:23:26.312Z,52.53
2018-05-03T19:25:53.911Z,52.69
2018-05-03T19:28:21.584Z,52.73
2018-05-03T19:30:49.163Z,52.67
2018-05-03T19:33:16.751Z,52.97
2018-05-03T19:35:44.392Z,53.08
2018-05-03T19:38:12.007Z,52.99
2018-05-03T19:40:39.673Z,53.23
2018-05-03T19:43:07.263Z,53.47
2018-05-03T19:45:35.267Z,53.27
2018-05-03T19:48:02.870Z,53.25
2018-05-03T19:50:30.466Z,53.13
2018-05-03T19:52:58.091Z,53.12
2018-05-03T19:55:25.727Z,53.07
2018-05-03T19:57:53.344Z,53.03
2018-05-03T20:00:20.951Z,53.35
2018-05-03T20:02:48.772Z,53.42
2018-05-03T20:05:16.399Z,53.29
2018-05-03T20:07:43.994Z,53.57
2018-05-03T20:10:11.608Z,54.08
2018-05-03T20:12:39.212Z,53.56
2018-05-03T20:15:06.832Z,53.72
2018-05-03T20:17:34.513Z,53.34
2018-05-03T20:20:02.309Z,53.23
2018-05-03T20:22:29.898Z,53.43
2018-05-03T20:24:57.613Z,53.47
2018-05-03T20:27:25.159Z,53.54
2018-05-03T20:29:52.754Z,53.36
2018-05-03T20:32:20.371Z,53.18
2018-05-03T20:34:47.985Z,53.33
2018-05-03T20:37:15.625Z,53.30
2018-05-03T20:39:43.281Z,53.63
2018-05-03T20:42:11.557Z,53.30
2018-05-03T20:44:39.181Z,53.49
2018-05-03T20:47:06.770Z,52.92
2018-05-03T20:49:34.388Z,53.54
2018-05-03T20:52:02.078Z,53.54
2018-05-03T20:54:29.647Z,53.58
2018-05-03T20:56:57.247Z,53.61
2018-05-03T20:59:24.839Z,53.91
2018-05-03T21:01:52.465Z,54.16
2018-05-03T21:04:20.063Z,53.73
2018-05-03T21:06:47.720Z,54.22
2018-05-03T21:09:15.322Z,54.72
2018-05-03T21:11:43.130Z,54.02
2018-05-03T21:14:10.729Z,54.48
2018-05-03T21:16:38.351Z,54.22
2018-05-03T21:19:05.975Z,54.04
2018-05-03T21:21:33.571Z,54.40
2018-05-03T21:24:01.184Z,54.50
2018-05-03T21:26:28.853Z,54.54
2018-05-03T21:28:56.657Z,54.67
2018-05-03T21:31:24.253Z,54.75
2018-05-03T21:33:51.857Z,54.90
2018-05-03T21:36:19.489Z,55.01
2018-05-03T21:38:47.079Z,54.96
2018-05-03T21:41:14.701Z,54.80
2018-05-03T21:43:42.320Z,55.15
2018-05-03T21:46:09.937Z,54.90
2018-05-03T21:48:37.538Z,54.82
2018-05-03T21:51:05.413Z,54.98
2018-05-03T21:53:33.011Z,54.88
2018-05-03T21:56:00.611Z,55.05
2018-05-03T21:58:28.230Z,55.08
2018-05-03T22:00:55.826Z,55.41
2018-05-03T22:03:23.442Z,55.44
2018-05-03T22:05:51.038Z,55.45
2018-05-03T22:08:18.860Z,55.27
2018-05-03T22:10:46.461Z,55.81
2018-05-03T22:13:14.047Z,55.78
2018-05-03T22:15:41.674Z,55.77
2018-05-03T22:18:09.270Z,55.79
2018-05-03T22:20:36.890Z,55.68
2018-05-03T22:23:04.678Z,56.01
2018-05-03T22:25:32.586Z,55.84
2018-05-03T22:28:00.179Z,55.78
2018-05-03T22:30:27.779Z,55.81
2018-05-03T22:32:55.422Z,55.89
2018-05-03T22:35:23.018Z,55.77
2018-05-03T22:37:50.637Z,55.96
2018-05-03T22:40:18.238Z,55.86
2018-05-03T22:42:46.031Z,56.06
2018-05-03T22:45:13.622Z,55.85
2018-05-03T22:47:41.219Z,55.78
2018-05-03T22:50:08.852Z,55.71
2018-05-03T22:52:36.454Z,55.77
2018-05-03T22:55:04.235Z,55.66
2018-05-03T22:57:31.842Z,56.07
2018-05-03T22:59:59.439Z,55.86
2018-05-03T23:02:27.059Z,56.03
2018-05-03T23:04:54.662Z,55.91
2018-05-03T23:07:22.553Z,56.11
2018-05-03T23:09:50.146Z,56.10
2018-05-03T23:12:17.749Z,55.76
2018-05-03T23:14:45.362Z,55.72
2018-05-03T23:17:12.955Z,55.71
2018-05-03T23:19:40.575Z,55.64
2018-05-03T23:22:08.173Z,56.01
2018-05-03T23:24:35.988Z,56.11
2018-05-03T23:27:03.578Z,56.00
2018-05-03T23:29:31.170Z,55.83
2018-05-03T23:31:58.787Z,56.13
2018-05-03T23:34:26.394Z,56.11
2018-05-03T23:36:54.012Z,56.33
2018-05-03T23:39:21.618Z,56.45
2018-05-03T23:41:49.519Z,56.21
2018-05-03T23:44:17.114Z,56.41
2018-05-03T23:46:44.706Z,56.50
2018-05-03T23:49:12.333Z,56.72
2018-05-03T23:51:39.926Z,56.81
2018-05-03T23:54:07.542Z,56.90
2018-05-03T23:56:35.143Z,57.13
2018-05-03T23:59:02.953Z,57.01
